Time;durP1;ratioP1;P1;durP2;ratioP2;P2;SDS_P1;SDS_P2;PMS_P1;PMS_P2;Temp;Humidity;BMP_temperature;BMP_pressure;BME280_temperature;BME280_humidity;BME280_pressure;Samples;Min_cycle;Max_cycle;Signal;HPM_P1;HPM_P2
2021/08/09 00:00:04;;;;;;;;;;;21.10;57.90;;;;;;5040641;28;20071;-59
2021/08/09 00:02:29;;;;;;;;;;;21.10;58.00;;;;;;5045300;28;20011;-59
2021/08/09 00:04:55;;;;;;;;;;;21.10;58.00;;;;;;5041585;28;19913;-56
2021/08/09 00:07:20;;;;;;;;;;;21.10;57.50;;;;;;5046032;28;19917;-60
2021/08/09 00:09:46;;;;;;;;;;;21.10;57.60;;;;;;5039281;28;19917;-60
2021/08/09 00:12:11;;;;;;;;;;;21.10;57.20;;;;;;5045347;28;19917;-57
2021/08/09 00:14:39;;;;;;;;;;;21.00;57.40;;;;;;5042016;28;20447;-59
2021/08/09 00:17:04;;;;;;;;;;;21.00;57.60;;;;;;5044984;28;20370;-59
2021/08/09 00:19:30;;;;;;;;;;;21.00;57.50;;;;;;5041053;28;19963;-56
2021/08/09 00:21:55;;;;;;;;;;;21.00;57.60;;;;;;5038667;22;19933;-57
2021/08/09 00:24:21;;;;;;;;;;;21.10;57.90;;;;;;5022959;28;19944;-60
2021/08/09 00:26:46;;;;;;;;;;;21.10;57.70;;;;;;5023109;28;19917;-59
2021/08/09 00:29:11;;;;;;;;;;;21.10;57.90;;;;;;5022919;28;19917;-60
2021/08/09 00:31:37;;;;;;;;;;;21.10;58.10;;;;;;5022960;28;20278;-61
2021/08/09 00:34:02;;;;;;;;;;;21.20;58.00;;;;;;5023208;28;19921;-61
2021/08/09 00:36:28;;;;;;;;;;;21.10;58.20;;;;;;5024707;28;20139;-61
2021/08/09 00:38:53;;;;;;;;;;;21.10;58.20;;;;;;5025103;28;19997;-60
2021/08/09 00:41:19;;;;;;;;;;;21.10;58.30;;;;;;5025527;28;19917;-62
2021/08/09 00:43:44;;;;;;;;;;;21.20;58.20;;;;;;5025546;28;20026;-58
2021/08/09 00:46:10;;;;;;;;;;;21.10;58.30;;;;;;5025395;28;20378;-59
2021/08/09 00:48:35;;;;;;;;;;;21.20;58.30;;;;;;5024618;28;19964;-62
2021/08/09 00:51:01;;;;;;;;;;;21.20;58.20;;;;;;5025048;28;19913;-58
2021/08/09 00:53:27;;;;;;;;;;;21.20;58.40;;;;;;5024640;28;19921;-59
2021/08/09 00:55:53;;;;;;;;;;;21.20;58.40;;;;;;4988866;28;19922;-58
2021/08/09 00:58:18;;;;;;;;;;;21.20;59.00;;;;;;4983762;28;20268;-59
2021/08/09 01:00:44;;;;;;;;;;;21.20;58.50;;;;;;4984298;28;19957;-60
2021/08/09 01:03:09;;;;;;;;;;;21.20;58.60;;;;;;4985881;28;19922;-62
2021/08/09 01:05:35;;;;;;;;;;;21.20;58.50;;;;;;4985839;28;20323;-62
2021/08/09 01:08:08;;;;;;;;;;;21.20;58.30;;;;;;4984984;28;19914;-62
2021/08/09 01:10:53;;;;;;;;;;;21.20;58.10;;;;;;4984198;28;19917;-60
2021/08/09 01:13:32;;;;;;;;;;;21.10;58.10;;;;;;4979320;28;19919;-59
2021/08/09 01:16:00;;;;;;;;;;;21.10;58.10;;;;;;5001599;28;20789;-62
2021/08/09 01:18:25;;;;;;;;;;;21.10;58.10;;;;;;5001808;28;19921;-60
2021/08/09 01:20:53;;;;;;;;;;;21.10;58.30;;;;;;5004494;28;19925;-61
2021/08/09 01:23:27;;;;;;;;;;;21.10;58.00;;;;;;5004351;28;19957;-61
2021/08/09 01:25:57;;;;;;;;;;;21.20;58.30;;;;;;5002923;28;19924;-59
2021/08/09 01:28:23;;;;;;;;;;;21.10;58.20;;;;;;5002677;28;19996;-62
2021/08/09 01:30:49;;;;;;;;;;;21.10;58.40;;;;;;5004551;28;19917;-60
2021/08/09 01:33:14;;;;;;;;;;;21.10;57.70;;;;;;5002765;28;20355;-61
2021/08/09 01:35:40;;;;;;;;;;;21.10;58.10;;;;;;5004849;28;19918;-59
2021/08/09 01:38:05;;;;;;;;;;;21.00;58.50;;;;;;5003927;28;20641;-58
2021/08/09 01:40:31;;;;;;;;;;;21.10;57.90;;;;;;5002014;28;19963;-61
2021/08/09 01:42:56;;;;;;;;;;;21.00;57.70;;;;;;5002694;28;19925;-58
2021/08/09 01:45:22;;;;;;;;;;;21.00;57.80;;;;;;5003057;28;20233;-61
2021/08/09 01:47:47;;;;;;;;;;;21.10;57.50;;;;;;5001355;28;19924;-58
2021/08/09 01:50:13;;;;;;;;;;;21.00;57.50;;;;;;5004358;28;20000;-61
2021/08/09 01:52:38;;;;;;;;;;;21.10;58.60;;;;;;5002500;28;20363;-59
2021/08/09 01:55:04;;;;;;;;;;;21.10;57.90;;;;;;4989337;28;20169;-58
2021/08/09 01:57:29;;;;;;;;;;;21.10;57.70;;;;;;4992149;28;19968;-59
2021/08/09 01:59:55;;;;;;;;;;;21.00;57.90;;;;;;5000344;28;19952;-61
2021/08/09 02:02:25;;;;;;;;;;;21.00;57.80;;;;;;5003335;28;19917;-59
2021/08/09 02:04:50;;;;;;;;;;;21.00;57.90;;;;;;5003676;28;19918;-61
2021/08/09 02:07:16;;;;;;;;;;;21.00;57.70;;;;;;5003562;28;19928;-61
2021/08/09 02:09:41;;;;;;;;;;;21.00;57.90;;;;;;5002065;28;19917;-60
2021/08/09 02:12:07;;;;;;;;;;;21.00;58.00;;;;;;5003769;28;20458;-58
2021/08/09 02:14:33;;;;;;;;;;;21.10;58.10;;;;;;5003661;28;19924;-60
2021/08/09 02:16:59;;;;;;;;;;;21.10;58.20;;;;;;5002275;28;19925;-56
2021/08/09 02:19:34;;;;;;;;;;;21.10;58.20;;;;;;5003470;28;19918;-58
2021/08/09 02:22:06;;;;;;;;;;;21.00;58.00;;;;;;5002242;28;19922;-58
2021/08/09 02:24:36;;;;;;;;;;;21.00;58.40;;;;;;5003457;28;19949;-60
2021/08/09 02:27:03;;;;;;;;;;;21.00;58.10;;;;;;5003608;28;20008;-62
2021/08/09 02:29:32;;;;;;;;;;;21.00;58.20;;;;;;5001534;28;20606;-58
2021/08/09 02:31:58;;;;;;;;;;;21.00;58.20;;;;;;5001902;28;19922;-57
2021/08/09 02:34:23;;;;;;;;;;;21.10;58.40;;;;;;5001945;28;20147;-56
2021/08/09 02:36:49;;;;;;;;;;;21.00;58.30;;;;;;5001830;28;19988;-60
2021/08/09 02:39:15;;;;;;;;;;;21.00;58.40;;;;;;5003202;28;19917;-61
2021/08/09 02:41:41;;;;;;;;;;;21.00;58.40;;;;;;5000577;28;19924;-60
2021/08/09 02:44:06;;;;;;;;;;;21.00;58.40;;;;;;5002362;28;20382;-61
2021/08/09 02:46:32;;;;;;;;;;;21.10;58.40;;;;;;5001679;28;19924;-57
2021/08/09 02:48:57;;;;;;;;;;;21.00;58.20;;;;;;5001133;28;19917;-61
2021/08/09 02:51:22;;;;;;;;;;;21.00;58.40;;;;;;5001562;28;20303;-60
2021/08/09 02:53:48;;;;;;;;;;;21.10;58.40;;;;;;5002634;28;19921;-59
2021/08/09 02:56:14;;;;;;;;;;;21.10;58.50;;;;;;4985603;28;19928;-61
2021/08/09 02:58:40;;;;;;;;;;;21.20;58.60;;;;;;5002899;28;19921;-59
2021/08/09 03:01:05;;;;;;;;;;;21.20;58.60;;;;;;5001635;28;19964;-62
2021/08/09 03:03:31;;;;;;;;;;;21.10;58.40;;;;;;5001539;28;20431;-60
2021/08/09 03:05:58;;;;;;;;;;;21.20;58.60;;;;;;5001829;28;20468;-61
2021/08/09 03:08:23;;;;;;;;;;;21.20;58.70;;;;;;5003277;28;20517;-58
2021/08/09 03:10:49;;;;;;;;;;;21.20;58.70;;;;;;5003608;28;19913;-61
2021/08/09 03:13:15;;;;;;;;;;;21.20;58.70;;;;;;5003243;28;19988;-61
2021/08/09 03:15:42;;;;;;;;;;;21.20;58.80;;;;;;5001283;28;21815;-62
2021/08/09 03:18:07;;;;;;;;;;;21.20;59.50;;;;;;5002023;28;19913;-59
2021/08/09 03:20:33;;;;;;;;;;;21.20;58.80;;;;;;5003452;28;19929;-61
2021/08/09 03:22:58;;;;;;;;;;;21.20;58.70;;;;;;5003110;28;20441;-62
2021/08/09 03:25:24;;;;;;;;;;;21.20;58.90;;;;;;5002951;28;20087;-60
2021/08/09 03:27:49;;;;;;;;;;;21.20;58.90;;;;;;5002382;28;19925;-61
2021/08/09 03:30:16;;;;;;;;;;;21.20;59.00;;;;;;5003437;28;19917;-61
2021/08/09 03:32:42;;;;;;;;;;;21.20;58.80;;;;;;5002551;28;19984;-60
2021/08/09 03:35:07;;;;;;;;;;;21.20;58.80;;;;;;5002338;28;20379;-61
2021/08/09 03:37:34;;;;;;;;;;;21.10;58.60;;;;;;5002422;28;19914;-61
2021/08/09 03:39:59;;;;;;;;;;;21.10;58.80;;;;;;5000169;28;20528;-59
2021/08/09 03:42:25;;;;;;;;;;;21.10;58.80;;;;;;5002806;28;19924;-61
2021/08/09 03:44:50;;;;;;;;;;;21.10;58.90;;;;;;4999769;28;20371;-60
2021/08/09 03:47:16;;;;;;;;;;;21.10;59.00;;;;;;5002948;28;19921;-60
2021/08/09 03:49:41;;;;;;;;;;;21.10;59.00;;;;;;5002965;28;19927;-59
2021/08/09 03:52:07;;;;;;;;;;;21.10;59.00;;;;;;5002731;28;19936;-59
2021/08/09 03:54:32;;;;;;;;;;;21.20;59.00;;;;;;5002278;28;19924;-62
2021/08/09 03:56:58;;;;;;;;;;;21.20;59.00;;;;;;5000434;28;19917;-59
2021/08/09 03:59:23;;;;;;;;;;;21.20;59.00;;;;;;5002581;28;20379;-57
2021/08/09 04:01:49;;;;;;;;;;;21.20;59.20;;;;;;4982844;28;19945;-60
2021/08/09 04:04:15;;;;;;;;;;;21.20;59.10;;;;;;5005771;28;19913;-61
2021/08/09 04:06:40;;;;;;;;;;;21.20;59.30;;;;;;5006348;28;20363;-62
2021/08/09 04:09:07;;;;;;;;;;;21.20;59.20;;;;;;5006025;28;19922;-60
2021/08/09 04:11:33;;;;;;;;;;;21.20;59.30;;;;;;5003589;28;20573;-62
2021/08/09 04:13:58;;;;;;;;;;;21.10;59.30;;;;;;5005727;28;19918;-58
2021/08/09 04:16:24;;;;;;;;;;;21.10;59.00;;;;;;5005664;28;20259;-59
2021/08/09 04:18:49;;;;;;;;;;;21.10;58.90;;;;;;4996621;28;19924;-60
2021/08/09 04:21:15;;;;;;;;;;;21.10;59.00;;;;;;4988880;28;19921;-60
2021/08/09 04:23:40;;;;;;;;;;;21.10;59.10;;;;;;5004044;28;20346;-60
2021/08/09 04:26:06;;;;;;;;;;;21.10;59.00;;;;;;5005812;28;19929;-62
2021/08/09 04:28:31;;;;;;;;;;;21.10;58.70;;;;;;5003737;28;19917;-59
2021/08/09 04:30:57;;;;;;;;;;;21.10;59.60;;;;;;5005379;28;19914;-59
2021/08/09 04:33:22;;;;;;;;;;;21.10;59.10;;;;;;5005310;28;19918;-60
2021/08/09 04:35:47;;;;;;;;;;;21.10;59.00;;;;;;5005507;28;20326;-61
2021/08/09 04:38:13;;;;;;;;;;;21.00;59.00;;;;;;5005189;28;19972;-59
2021/08/09 04:40:40;;;;;;;;;;;21.00;58.90;;;;;;5005363;28;20291;-59
2021/08/09 04:43:05;;;;;;;;;;;21.00;59.10;;;;;;5005481;28;19914;-61
2021/08/09 04:45:31;;;;;;;;;;;21.10;58.90;;;;;;5005354;28;19913;-58
2021/08/09 04:47:56;;;;;;;;;;;21.00;58.70;;;;;;5004944;28;19921;-61
2021/08/09 04:50:22;;;;;;;;;;;21.00;58.90;;;;;;5005007;28;19924;-61
2021/08/09 04:52:47;;;;;;;;;;;21.00;59.00;;;;;;5004534;28;19917;-59
2021/08/09 04:55:13;;;;;;;;;;;21.00;58.90;;;;;;4997698;28;20295;-61
2021/08/09 04:57:39;;;;;;;;;;;21.00;58.60;;;;;;4984590;28;19917;-62
2021/08/09 05:00:04;;;;;;;;;;;20.90;58.80;;;;;;4997386;28;19925;-61
2021/08/09 05:02:30;;;;;;;;;;;20.90;58.90;;;;;;5004112;28;19918;-59
2021/08/09 05:04:55;;;;;;;;;;;20.90;58.40;;;;;;4995558;28;20367;-61
2021/08/09 05:07:21;;;;;;;;;;;20.90;58.60;;;;;;4996846;28;20143;-59
2021/08/09 05:09:46;;;;;;;;;;;20.90;58.70;;;;;;5003030;28;19921;-59
2021/08/09 05:12:12;;;;;;;;;;;20.90;58.90;;;;;;5003386;28;20563;-58
2021/08/09 05:14:37;;;;;;;;;;;20.90;58.80;;;;;;5003221;28;19925;-58
2021/08/09 05:17:03;;;;;;;;;;;20.80;58.50;;;;;;5004933;28;19924;-61
2021/08/09 05:19:30;;;;;;;;;;;20.80;58.60;;;;;;5004736;28;19914;-61
2021/08/09 05:21:55;;;;;;;;;;;20.80;58.80;;;;;;5003895;28;19929;-59
2021/08/09 05:24:20;;;;;;;;;;;20.90;59.00;;;;;;5001258;28;19979;-61
2021/08/09 05:26:46;;;;;;;;;;;20.80;58.90;;;;;;5005166;28;19913;-60
2021/08/09 05:29:11;;;;;;;;;;;20.90;58.80;;;;;;5004617;28;20624;-59
2021/08/09 05:31:37;;;;;;;;;;;20.90;59.00;;;;;;5004730;28;19925;-62
2021/08/09 05:34:02;;;;;;;;;;;20.90;58.50;;;;;;5004754;28;20001;-61
2021/08/09 05:36:28;;;;;;;;;;;20.80;58.40;;;;;;5004813;28;19914;-57
2021/08/09 05:38:54;;;;;;;;;;;20.80;58.70;;;;;;5004293;28;19924;-59
2021/08/09 05:41:20;;;;;;;;;;;20.80;58.40;;;;;;5004353;28;20310;-60
2021/08/09 05:43:46;;;;;;;;;;;20.80;58.70;;;;;;5004778;28;20604;-59
2021/08/09 05:46:12;;;;;;;;;;;20.80;58.00;;;;;;5004461;28;20075;-60
2021/08/09 05:48:37;;;;;;;;;;;20.70;58.20;;;;;;5004388;28;19937;-60
2021/08/09 05:51:02;;;;;;;;;;;20.70;58.50;;;;;;5004282;28;19968;-58
2021/08/09 05:53:29;;;;;;;;;;;20.70;58.50;;;;;;5004197;28;20461;-59
2021/08/09 05:55:55;;;;;;;;;;;20.70;58.70;;;;;;5004721;28;19928;-58
2021/08/09 05:58:20;;;;;;;;;;;20.70;58.50;;;;;;5002566;28;20355;-60
2021/08/09 06:00:46;;;;;;;;;;;20.70;58.60;;;;;;5004571;28;19917;-61
2021/08/09 06:03:13;;;;;;;;;;;20.70;58.60;;;;;;4998191;28;20367;-61
2021/08/09 06:05:41;;;;;;;;;;;20.70;58.70;;;;;;5004321;28;19920;-61
2021/08/09 06:08:06;;;;;;;;;;;20.70;59.10;;;;;;5003712;28;19921;-60
2021/08/09 06:10:32;;;;;;;;;;;20.70;59.30;;;;;;5002993;28;20731;-60
2021/08/09 06:12:57;;;;;;;;;;;20.70;59.70;;;;;;5021099;28;19943;-59
2021/08/09 06:15:22;;;;;;;;;;;20.70;59.80;;;;;;5023276;28;19983;-59
2021/08/09 06:17:48;;;;;;;;;;;20.80;59.50;;;;;;5023276;28;20275;-61
2021/08/09 06:20:13;;;;;;;;;;;20.80;59.80;;;;;;5023985;28;19928;-59
2021/08/09 06:22:39;;;;;;;;;;;20.80;60.10;;;;;;5066689;23;19925;-59
2021/08/09 06:25:04;;;;;;;;;;;20.80;60.20;;;;;;5047315;28;20381;-62
2021/08/09 06:27:30;;;;;;;;;;;20.80;59.80;;;;;;5037977;28;19917;-57
2021/08/09 06:29:55;;;;;;;;;;;20.80;60.00;;;;;;5037867;28;19917;-56
2021/08/09 06:32:21;;;;;;;;;;;20.80;60.40;;;;;;5038138;28;19949;-57
2021/08/09 06:34:46;;;;;;;;;;;20.80;60.30;;;;;;5037977;28;19995;-54
2021/08/09 06:37:12;;;;;;;;;;;20.90;60.40;;;;;;5039021;28;20002;-57
2021/08/09 06:39:37;;;;;;;;;;;20.80;60.10;;;;;;5040351;28;19924;-57
2021/08/09 06:42:04;;;;;;;;;;;20.80;60.10;;;;;;5041007;28;19917;-56
2021/08/09 06:44:32;;;;;;;;;;;20.80;60.40;;;;;;5040635;28;19917;-56
2021/08/09 06:46:58;;;;;;;;;;;20.80;60.00;;;;;;5041888;28;20086;-57
2021/08/09 06:49:23;;;;;;;;;;;20.80;60.00;;;;;;5040738;28;20374;-57
2021/08/09 06:51:49;;;;;;;;;;;20.80;60.60;;;;;;5041306;28;19917;-57
2021/08/09 06:54:14;;;;;;;;;;;20.80;60.20;;;;;;5041146;28;20039;-56
2021/08/09 06:56:40;;;;;;;;;;;20.90;60.20;;;;;;5041919;28;19970;-57
2021/08/09 06:59:05;;;;;;;;;;;20.90;60.80;;;;;;5041400;28;19923;-55
2021/08/09 07:01:30;;;;;;;;;;;20.90;60.70;;;;;;5041646;28;20397;-60
2021/08/09 07:03:56;;;;;;;;;;;20.80;60.80;;;;;;5041475;28;19921;-57
2021/08/09 07:06:22;;;;;;;;;;;20.80;60.80;;;;;;5041091;28;19920;-58
2021/08/09 07:08:48;;;;;;;;;;;20.80;60.60;;;;;;5041144;28;20004;-56
2021/08/09 07:11:13;;;;;;;;;;;20.80;60.70;;;;;;5042132;28;19912;-59
2021/08/09 07:13:39;;;;;;;;;;;20.90;60.70;;;;;;5040259;28;19947;-55
2021/08/09 07:16:04;;;;;;;;;;;20.90;60.90;;;;;;5042789;28;19928;-60
2021/08/09 07:18:32;;;;;;;;;;;20.90;60.90;;;;;;5040482;28;19919;-59
2021/08/09 07:20:57;;;;;;;;;;;20.90;60.10;;;;;;5044281;28;19913;-60
2021/08/09 07:23:23;;;;;;;;;;;20.80;59.90;;;;;;5042190;28;19931;-57
2021/08/09 07:25:48;;;;;;;;;;;20.80;60.00;;;;;;5041755;28;19917;-58
2021/08/09 07:28:14;;;;;;;;;;;20.90;60.10;;;;;;5041861;28;19916;-60
2021/08/09 07:30:39;;;;;;;;;;;20.90;59.90;;;;;;5039339;28;19994;-56
2021/08/09 07:33:05;;;;;;;;;;;20.90;59.90;;;;;;5041266;28;19919;-56
2021/08/09 07:35:30;;;;;;;;;;;20.80;59.70;;;;;;5041644;28;19920;-57
2021/08/09 07:37:55;;;;;;;;;;;20.90;59.80;;;;;;5041487;28;20757;-53
2021/08/09 07:40:21;;;;;;;;;;;20.80;59.60;;;;;;5045913;28;20161;-55
2021/08/09 07:42:46;;;;;;;;;;;20.80;59.60;;;;;;5046641;28;20378;-55
2021/08/09 07:45:12;;;;;;;;;;;20.80;59.30;;;;;;5043643;28;19913;-57
2021/08/09 07:47:37;;;;;;;;;;;20.80;59.00;;;;;;5044006;28;20092;-60
2021/08/09 07:50:03;;;;;;;;;;;20.80;58.90;;;;;;5045021;28;20305;-59
2021/08/09 07:52:28;;;;;;;;;;;20.80;59.20;;;;;;5043723;28;19919;-60
2021/08/09 07:54:55;;;;;;;;;;;20.80;59.60;;;;;;5044927;28;19921;-60
2021/08/09 07:57:21;;;;;;;;;;;20.80;60.00;;;;;;5044747;28;20383;-58
2021/08/09 07:59:46;;;;;;;;;;;20.80;60.10;;;;;;5045348;28;19952;-60
2021/08/09 08:02:12;;;;;;;;;;;20.80;60.30;;;;;;5043248;28;19912;-59
2021/08/09 08:04:37;;;;;;;;;;;20.80;59.80;;;;;;5045050;28;19913;-59
2021/08/09 08:07:03;;;;;;;;;;;20.80;59.60;;;;;;5044690;28;19913;-59
2021/08/09 08:09:28;;;;;;;;;;;20.70;59.40;;;;;;5044648;28;19921;-60
2021/08/09 08:11:54;;;;;;;;;;;20.80;59.10;;;;;;5044892;28;19920;-58
2021/08/09 08:14:19;;;;;;;;;;;20.80;59.30;;;;;;5044902;28;19951;-59
2021/08/09 08:16:46;;;;;;;;;;;20.70;59.40;;;;;;5045299;28;19913;-58
2021/08/09 08:19:12;;;;;;;;;;;20.80;59.70;;;;;;5044495;28;19997;-60
2021/08/09 08:21:37;;;;;;;;;;;20.80;59.80;;;;;;5044418;28;20314;-57
2021/08/09 08:24:02;;;;;;;;;;;20.80;60.00;;;;;;5045073;28;19917;-59
2021/08/09 08:26:28;;;;;;;;;;;20.80;60.20;;;;;;5044798;28;20385;-58
2021/08/09 08:28:53;;;;;;;;;;;20.80;60.40;;;;;;5044233;28;19928;-59
2021/08/09 08:31:19;;;;;;;;;;;20.80;60.30;;;;;;5044608;28;19913;-59
2021/08/09 08:33:44;;;;;;;;;;;20.80;60.30;;;;;;5044976;28;20336;-59
2021/08/09 08:36:10;;;;;;;;;;;20.80;60.50;;;;;;5044415;28;19913;-58
2021/08/09 08:38:36;;;;;;;;;;;20.80;60.30;;;;;;5042562;28;19932;-59
2021/08/09 08:41:05;;;;;;;;;;;20.80;60.00;;;;;;5044325;28;19917;-56
2021/08/09 08:43:30;;;;;;;;;;;20.80;59.90;;;;;;5044682;28;19917;-57
2021/08/09 08:45:56;;;;;;;;;;;20.80;60.00;;;;;;5044115;28;19913;-56
2021/08/09 08:48:23;;;;;;;;;;;20.80;60.00;;;;;;5043963;28;19913;-57
2021/08/09 08:50:48;;;;;;;;;;;20.80;59.70;;;;;;5044229;28;19920;-55
2021/08/09 08:53:13;;;;;;;;;;;20.80;59.80;;;;;;5042298;28;19913;-57
2021/08/09 08:55:39;;;;;;;;;;;20.80;60.50;;;;;;5044563;28;19916;-53
2021/08/09 08:58:04;;;;;;;;;;;20.80;60.00;;;;;;5057072;28;19942;-54
2021/08/09 09:00:36;;;;;;;;;;;20.80;60.00;;;;;;5057865;28;19938;-56
2021/08/09 09:03:03;;;;;;;;;;;20.80;60.00;;;;;;5056446;28;20308;-57
2021/08/09 09:05:30;;;;;;;;;;;20.80;60.00;;;;;;5056905;28;19923;-56
2021/08/09 09:07:56;;;;;;;;;;;20.80;60.10;;;;;;5057381;28;20018;-56
2021/08/09 09:10:29;;;;;;;;;;;20.80;60.10;;;;;;5058149;28;19919;-58
2021/08/09 09:13:27;;;;;;;;;;;20.80;60.20;;;;;;5054754;28;19916;-57
2021/08/09 09:16:08;;;;;;;;;;;20.80;60.10;;;;;;5029088;28;20004;-58
2021/08/09 09:18:47;;;;;;;;;;;20.80;60.20;;;;;;5057703;28;20369;-58
2021/08/09 09:21:22;;;;;;;;;;;20.80;59.60;;;;;;5057741;28;19966;-57
2021/08/09 09:23:47;;;;;;;;;;;20.80;59.50;;;;;;5047986;28;19927;-58
2021/08/09 09:26:20;;;;;;;;;;;20.80;60.20;;;;;;5057736;28;19916;-58
2021/08/09 09:28:45;;;;;;;;;;;20.80;59.70;;;;;;5057077;28;19939;-57
2021/08/09 09:31:14;;;;;;;;;;;20.80;59.70;;;;;;5057751;28;20397;-58
2021/08/09 09:33:45;;;;;;;;;;;20.80;59.70;;;;;;5056338;28;19935;-56
2021/08/09 09:36:11;;;;;;;;;;;20.80;59.70;;;;;;5057086;28;20480;-57
2021/08/09 09:38:45;;;;;;;;;;;20.80;59.40;;;;;;5056596;28;19975;-57
2021/08/09 09:41:11;;;;;;;;;;;20.70;59.40;;;;;;5057802;28;20332;-57
2021/08/09 09:43:40;;;;;;;;;;;20.70;59.50;;;;;;5057926;28;19917;-58
2021/08/09 09:46:06;;;;;;;;;;;20.70;59.50;;;;;;5056605;28;20244;-56
2021/08/09 09:48:33;;;;;;;;;;;20.80;59.60;;;;;;5057495;28;20364;-57
2021/08/09 09:51:14;;;;;;;;;;;20.70;59.40;;;;;;5057426;28;19916;-59
2021/08/09 09:53:40;;;;;;;;;;;20.70;59.30;;;;;;5057017;28;19916;-58
2021/08/09 09:56:05;;;;;;;;;;;20.70;59.30;;;;;;5057312;28;20350;-57
2021/08/09 09:58:31;;;;;;;;;;;20.80;58.90;;;;;;5056832;28;19913;-60
2021/08/09 10:00:58;;;;;;;;;;;20.80;58.90;;;;;;5051233;28;19973;-58
2021/08/09 10:03:24;;;;;;;;;;;20.70;58.90;;;;;;5049312;28;20012;-60
2021/08/09 10:05:50;;;;;;;;;;;20.70;58.80;;;;;;5065335;28;19913;-55
2021/08/09 10:08:16;;;;;;;;;;;20.70;58.70;;;;;;5052761;28;20530;-57
2021/08/09 10:10:45;;;;;;;;;;;20.80;58.70;;;;;;5054665;28;19969;-57
2021/08/09 10:13:11;;;;;;;;;;;20.80;59.20;;;;;;5051407;28;19924;-57
2021/08/09 10:15:36;;;;;;;;;;;20.80;58.40;;;;;;5054630;28;20340;-56
2021/08/09 10:18:02;;;;;;;;;;;20.70;58.30;;;;;;5050609;28;20568;-56
2021/08/09 10:20:27;;;;;;;;;;;20.70;58.30;;;;;;5055127;28;20627;-57
2021/08/09 10:23:02;;;;;;;;;;;20.80;58.30;;;;;;5053605;28;19924;-57
2021/08/09 10:25:44;;;;;;;;;;;20.70;58.20;;;;;;5057207;28;20415;-56
2021/08/09 10:28:09;;;;;;;;;;;20.70;58.40;;;;;;5053229;28;19919;-58
2021/08/09 10:30:36;;;;;;;;;;;20.80;57.30;;;;;;5056754;28;19917;-56
2021/08/09 10:33:07;;;;;;;;;;;20.70;57.70;;;;;;5052720;28;19917;-56
2021/08/09 10:35:32;;;;;;;;;;;20.80;57.90;;;;;;5055807;28;20605;-57
2021/08/09 10:38:11;;;;;;;;;;;20.70;56.90;;;;;;5053218;28;19913;-57
2021/08/09 10:40:36;;;;;;;;;;;20.80;57.10;;;;;;5056835;28;20418;-56
2021/08/09 10:43:02;;;;;;;;;;;20.80;57.00;;;;;;5051508;28;19916;-56
2021/08/09 10:45:40;;;;;;;;;;;20.70;57.00;;;;;;5057456;28;20297;-59
2021/08/09 10:48:06;;;;;;;;;;;20.70;56.70;;;;;;5054475;28;20301;-57
2021/08/09 10:50:32;;;;;;;;;;;20.80;56.70;;;;;;5056604;28;19913;-59
2021/08/09 10:52:57;;;;;;;;;;;20.80;56.70;;;;;;5036307;28;19924;-59
2021/08/09 10:55:32;;;;;;;;;;;20.80;56.50;;;;;;5070755;28;19928;-58
2021/08/09 10:58:01;;;;;;;;;;;20.80;55.90;;;;;;5054278;28;20404;-56
2021/08/09 11:00:49;;;;;;;;;;;20.80;56.40;;;;;;5056576;28;19913;-57
2021/08/09 11:03:16;;;;;;;;;;;20.80;56.60;;;;;;5052746;28;19916;-57
2021/08/09 11:05:42;;;;;;;;;;;20.70;56.80;;;;;;5057421;28;19919;-55
2021/08/09 11:08:17;;;;;;;;;;;20.70;56.90;;;;;;5053554;28;19944;-59
2021/08/09 11:10:58;;;;;;;;;;;20.70;56.80;;;;;;5057593;28;20154;-59
2021/08/09 11:13:27;;;;;;;;;;;20.70;56.80;;;;;;5055805;28;20266;-57
2021/08/09 11:15:52;;;;;;;;;;;20.80;56.90;;;;;;5050499;28;19920;-58
2021/08/09 11:18:18;;;;;;;;;;;20.70;57.00;;;;;;5056701;28;20365;-56
2021/08/09 11:20:43;;;;;;;;;;;20.70;57.10;;;;;;5060953;28;19912;-57
2021/08/09 11:23:10;;;;;;;;;;;20.70;57.10;;;;;;5054521;28;19920;-57
2021/08/09 11:25:42;;;;;;;;;;;20.70;57.10;;;;;;5060424;28;19912;-55
2021/08/09 11:28:08;;;;;;;;;;;20.70;57.10;;;;;;5055782;28;19925;-58
2021/08/09 11:30:35;;;;;;;;;;;20.70;57.10;;;;;;5060227;28;19999;-56
2021/08/09 11:33:00;;;;;;;;;;;20.80;57.20;;;;;;5055608;28;20194;-58
2021/08/09 11:35:26;;;;;;;;;;;20.80;57.80;;;;;;5060621;28;20301;-56
2021/08/09 11:37:52;;;;;;;;;;;20.80;57.30;;;;;;5056847;28;19923;-56
2021/08/09 11:40:33;;;;;;;;;;;20.80;57.30;;;;;;5060285;28;20222;-55
2021/08/09 11:42:58;;;;;;;;;;;20.70;57.40;;;;;;5056217;28;19917;-56
2021/08/09 11:45:24;;;;;;;;;;;20.80;57.50;;;;;;5059460;28;19939;-54
2021/08/09 11:47:50;;;;;;;;;;;20.80;57.50;;;;;;5056209;28;19916;-58
2021/08/09 11:50:15;;;;;;;;;;;20.80;57.70;;;;;;5060382;28;19916;-56
2021/08/09 11:52:41;;;;;;;;;;;20.80;57.80;;;;;;5058765;28;20400;-55
2021/08/09 11:55:06;;;;;;;;;;;20.80;57.90;;;;;;5056094;28;19924;-56
2021/08/09 11:57:39;;;;;;;;;;;20.80;57.90;;;;;;5059216;28;19912;-57
2021/08/09 12:00:05;;;;;;;;;;;20.80;58.00;;;;;;5054479;28;19920;-55
2021/08/09 12:02:31;;;;;;;;;;;20.80;58.20;;;;;;5059675;28;19959;-57
2021/08/09 12:04:56;;;;;;;;;;;20.80;58.10;;;;;;5055844;28;19971;-56
2021/08/09 12:07:22;;;;;;;;;;;20.80;58.10;;;;;;5059151;28;19916;-56
2021/08/09 12:09:47;;;;;;;;;;;20.80;59.00;;;;;;5058646;28;19916;-54
2021/08/09 12:12:14;;;;;;;;;;;20.80;58.50;;;;;;5050066;28;19977;-56
2021/08/09 12:14:39;;;;;;;;;;;20.80;58.70;;;;;;5059438;28;19917;-54
2021/08/09 12:17:12;;;;;;;;;;;20.80;58.80;;;;;;5057774;28;20393;-57
2021/08/09 12:19:47;;;;;;;;;;;20.80;58.70;;;;;;5055883;28;19916;-55
2021/08/09 12:22:17;;;;;;;;;;;20.80;58.70;;;;;;5059328;28;20011;-55
2021/08/09 12:24:43;;;;;;;;;;;20.80;58.60;;;;;;5058227;28;20028;-56
2021/08/09 12:27:27;;;;;;;;;;;20.80;58.70;;;;;;5059893;28;19920;-55
2021/08/09 12:30:05;;;;;;;;;;;20.80;58.60;;;;;;5054727;28;19927;-57
2021/08/09 12:32:30;;;;;;;;;;;20.80;58.60;;;;;;5059575;28;20469;-55
2021/08/09 12:34:56;;;;;;;;;;;20.80;58.70;;;;;;5055359;28;19996;-57
2021/08/09 12:37:22;;;;;;;;;;;20.80;58.60;;;;;;5070683;22;20409;-71
2021/08/09 12:39:47;;;;;;;;;;;20.80;58.30;;;;;;5059999;28;19916;-70
2021/08/09 12:42:16;;;;;;;;;;;20.90;58.20;;;;;;5063020;28;19924;-70
2021/08/09 12:44:41;;;;;;;;;;;20.90;58.10;;;;;;5064106;28;19948;-70
2021/08/09 12:47:07;;;;;;;;;;;20.90;57.90;;;;;;5064014;28;20743;-71
2021/08/09 12:49:32;;;;;;;;;;;20.80;57.90;;;;;;5064162;28;20079;-69
2021/08/09 12:51:58;;;;;;;;;;;20.90;57.90;;;;;;5063852;28;20830;-71
2021/08/09 12:54:23;;;;;;;;;;;20.90;57.80;;;;;;5063876;28;19920;-69
2021/08/09 12:56:49;;;;;;;;;;;20.90;57.60;;;;;;5063808;28;19917;-72
2021/08/09 12:59:14;;;;;;;;;;;20.80;57.50;;;;;;5064026;28;19916;-68
2021/08/09 13:01:41;;;;;;;;;;;20.80;57.60;;;;;;5064518;28;20330;-71
2021/08/09 13:04:06;;;;;;;;;;;20.80;57.60;;;;;;5063348;28;19916;-69
2021/08/09 13:06:31;;;;;;;;;;;20.90;57.80;;;;;;5063782;28;19923;-72
2021/08/09 13:08:58;;;;;;;;;;;20.90;57.90;;;;;;5062037;28;20366;-75
2021/08/09 13:11:24;;;;;;;;;;;20.90;58.00;;;;;;5063547;28;19912;-69
2021/08/09 13:13:49;;;;;;;;;;;20.90;57.70;;;;;;5061963;28;19965;-70
2021/08/09 13:16:15;;;;;;;;;;;20.90;57.90;;;;;;5061356;28;19951;-68
2021/08/09 13:18:41;;;;;;;;;;;20.90;57.90;;;;;;5056937;28;19917;-66
2021/08/09 13:21:06;;;;;;;;;;;20.90;57.70;;;;;;5062013;28;19920;-69
2021/08/09 13:23:32;;;;;;;;;;;20.90;57.60;;;;;;5053705;28;19919;-71
2021/08/09 13:25:58;;;;;;;;;;;20.90;57.90;;;;;;5062062;28;20482;-68
2021/08/09 13:28:23;;;;;;;;;;;20.90;57.90;;;;;;5053830;28;20011;-68
2021/08/09 13:30:49;;;;;;;;;;;20.90;57.90;;;;;;5062961;28;19927;-65
2021/08/09 13:33:14;;;;;;;;;;;20.90;57.90;;;;;;5048332;28;20395;-69
2021/08/09 13:35:41;;;;;;;;;;;20.90;57.80;;;;;;5074467;28;19924;-69
2021/08/09 13:38:07;;;;;;;;;;;20.90;57.60;;;;;;5057557;28;20448;-63
2021/08/09 13:40:32;;;;;;;;;;;20.90;57.90;;;;;;5062523;28;19912;-69
2021/08/09 13:42:59;;;;;;;;;;;20.90;58.30;;;;;;5058269;28;20302;-69
2021/08/09 13:45:25;;;;;;;;;;;20.90;58.40;;;;;;5058267;28;20400;-65
2021/08/09 13:47:50;;;;;;;;;;;20.90;58.50;;;;;;5062105;28;19979;-70
2021/08/09 13:50:16;;;;;;;;;;;21.00;58.50;;;;;;5062547;28;19927;-65
2021/08/09 13:52:41;;;;;;;;;;;21.00;58.40;;;;;;5061978;28;20260;-69
2021/08/09 13:55:07;;;;;;;;;;;21.00;58.30;;;;;;5062161;28;19921;-69
2021/08/09 13:57:32;;;;;;;;;;;21.00;58.00;;;;;;5063119;28;20023;-68
2021/08/09 13:59:57;;;;;;;;;;;21.00;57.90;;;;;;5054792;28;19916;-69
2021/08/09 14:02:24;;;;;;;;;;;21.00;57.70;;;;;;5063140;28;20309;-66
2021/08/09 14:04:49;;;;;;;;;;;21.00;57.80;;;;;;5064635;28;19959;-69
2021/08/09 14:07:14;;;;;;;;;;;21.00;57.50;;;;;;5062573;28;20017;-69
2021/08/09 14:09:40;;;;;;;;;;;21.00;57.50;;;;;;5062542;28;19920;-69
2021/08/09 14:12:05;;;;;;;;;;;21.00;57.60;;;;;;5055604;28;19916;-63